createdAt,value
2022-09-03T00:03:08.039Z,100
2022-09-03T00:13:07.958Z,100
2022-09-03T00:23:07.945Z,100
2022-09-03T00:33:07.957Z,100
2022-09-03T00:43:07.923Z,100
2022-09-03T00:53:07.930Z,100
2022-09-03T01:03:07.952Z,100
2022-09-03T01:13:07.920Z,100
2022-09-03T01:23:07.928Z,100
2022-09-03T01:33:07.883Z,100
2022-09-03T01:43:07.900Z,100
2022-09-03T01:53:07.885Z,100
2022-09-03T02:03:07.876Z,100
2022-09-03T02:13:07.926Z,100
2022-09-03T02:23:07.870Z,100
2022-09-03T02:33:07.892Z,100
2022-09-03T02:43:07.885Z,100
2022-09-03T02:53:07.844Z,100
2022-09-03T03:03:07.849Z,100
2022-09-03T03:13:07.848Z,100
2022-09-03T03:23:07.842Z,100
2022-09-03T03:33:07.852Z,100
2022-09-03T03:43:07.814Z,100
2022-09-03T03:53:07.829Z,100
2022-09-03T04:03:07.828Z,100
2022-09-03T04:13:07.822Z,100
2022-09-03T04:23:07.791Z,100
2022-09-03T04:33:07.784Z,100
2022-09-03T04:43:07.774Z,100
2022-09-03T04:53:08.320Z,100
2022-09-03T05:03:07.765Z,100
2022-09-03T05:13:07.787Z,100
2022-09-03T05:23:07.774Z,100
2022-09-03T05:33:07.852Z,100
2022-09-03T05:43:08.557Z,100
2022-09-03T05:53:07.741Z,100
2022-09-03T06:03:07.795Z,100
2022-09-03T06:13:07.745Z,100
2022-09-03T06:23:07.735Z,100
2022-09-03T06:33:07.710Z,100
2022-09-03T06:43:07.726Z,100
2022-09-03T06:53:07.691Z,100
2022-09-03T07:03:07.686Z,100
2022-09-03T07:13:07.690Z,100
2022-09-03T07:23:07.651Z,100
2022-09-03T07:33:07.713Z,100
2022-09-03T07:43:07.658Z,100
2022-09-03T07:53:07.630Z,100
2022-09-03T08:03:07.655Z,100
2022-09-03T08:13:07.622Z,94
2022-09-03T08:23:07.628Z,100
2022-09-03T08:33:07.591Z,95
2022-09-03T08:43:07.585Z,88
2022-09-03T08:53:07.601Z,87
2022-09-03T09:03:07.611Z,84
2022-09-03T09:13:07.566Z,73
2022-09-03T09:23:07.562Z,68
2022-09-03T09:33:07.532Z,69
2022-09-03T09:43:07.532Z,63
2022-09-03T09:53:07.512Z,64
2022-09-03T10:03:07.541Z,63
2022-09-03T10:13:07.491Z,61
2022-09-03T10:23:07.492Z,64
2022-09-03T10:33:07.467Z,60
2022-09-03T10:43:07.452Z,58
2022-09-03T10:53:07.457Z,56
2022-09-03T11:03:07.562Z,60
2022-09-03T11:13:07.436Z,58
2022-09-03T11:23:07.403Z,56
2022-09-03T11:33:07.399Z,52
2022-09-03T11:43:07.391Z,53
2022-09-03T11:53:07.369Z,53
2022-09-03T12:03:07.377Z,50
2022-09-03T12:13:07.357Z,53
2022-09-03T12:23:07.339Z,54
2022-09-03T12:33:07.333Z,54
2022-09-03T12:53:07.299Z,54
2022-09-03T13:03:07.293Z,51
2022-09-03T13:13:07.299Z,52
2022-09-03T13:23:07.273Z,53
2022-09-03T13:33:07.267Z,53
2022-09-03T13:43:07.259Z,55
2022-09-03T13:53:07.259Z,54
2022-09-03T14:03:07.239Z,56
2022-09-03T14:13:07.244Z,58
2022-09-03T14:23:07.194Z,58
2022-09-03T14:33:07.199Z,59
2022-09-03T14:43:07.208Z,58
2022-09-03T14:53:07.204Z,57
2022-09-03T15:03:07.141Z,52
2022-09-03T15:13:07.143Z,53
2022-09-03T15:23:07.138Z,52
2022-09-03T15:33:07.137Z,52
2022-09-03T15:43:07.117Z,53
2022-09-03T15:53:07.107Z,54
2022-09-03T16:03:07.131Z,54
2022-09-03T16:13:07.080Z,56
2022-09-03T16:23:07.059Z,57
2022-09-03T16:33:07.044Z,57
2022-09-03T16:43:18.270Z,59
2022-09-03T16:53:07.070Z,59
2022-09-03T17:13:07.029Z,62
2022-09-03T17:23:07.013Z,69
2022-09-03T17:33:07.005Z,76
2022-09-03T17:43:07.005Z,80
2022-09-03T17:53:06.949Z,85
2022-09-03T18:03:06.984Z,83
2022-09-03T18:13:08.228Z,85
2022-09-03T18:23:06.927Z,84
2022-09-03T18:33:07.296Z,89
2022-09-03T18:43:06.914Z,91
2022-09-03T18:53:06.907Z,93
2022-09-03T19:03:06.904Z,95
2022-09-03T19:13:06.919Z,98
2022-09-03T19:23:06.892Z,100
2022-09-03T19:33:06.872Z,100
2022-09-03T19:43:06.847Z,100
2022-09-03T19:53:06.859Z,100
2022-09-03T20:03:06.877Z,100
2022-09-03T20:13:06.841Z,100
2022-09-03T20:23:06.823Z,100
2022-09-03T20:33:06.811Z,100
2022-09-03T20:43:06.793Z,100
2022-09-03T20:53:06.796Z,100
2022-09-03T21:03:06.805Z,100
2022-09-03T21:13:06.784Z,100
2022-09-03T21:23:06.776Z,100
2022-09-03T21:33:06.766Z,100
2022-09-03T21:43:06.746Z,100
2022-09-03T21:53:06.751Z,100
2022-09-03T22:03:06.719Z,100
2022-09-03T22:13:06.707Z,100
2022-09-03T22:23:06.708Z,100
2022-09-03T22:33:06.710Z,100
2022-09-03T22:43:06.675Z,100
2022-09-03T22:53:06.668Z,100
2022-09-03T23:03:06.666Z,100
2022-09-03T23:13:06.644Z,100
2022-09-03T23:23:06.666Z,100
2022-09-03T23:33:06.650Z,100
2022-09-03T23:43:06.672Z,100
2022-09-03T23:53:06.626Z,100
